sensor_id;sensor_type;location;lat;lon;timestamp;temperature;humidity
5461;DHT22;2753;49.196;8.286;2023-01-10T00:00:08;6.30;99.90
5461;DHT22;2753;49.196;8.286;2023-01-10T00:02:34;6.40;99.90
5461;DHT22;2753;49.196;8.286;2023-01-10T00:05:00;6.30;99.90
5461;DHT22;2753;49.196;8.286;2023-01-10T00:07:25;6.40;99.90
5461;DHT22;2753;49.196;8.286;2023-01-10T00:09:51;6.40;99.90
5461;DHT22;2753;49.196;8.286;2023-01-10T00:12:16;6.40;99.90
5461;DHT22;2753;49.196;8.286;2023-01-10T00:15:00;6.40;99.90
5461;DHT22;2753;49.196;8.286;2023-01-10T00:17:26;6.40;99.90
5461;DHT22;2753;49.196;8.286;2023-01-10T00:19:52;6.40;99.90
5461;DHT22;2753;49.196;8.286;2023-01-10T00:22:17;6.50;99.90
5461;DHT22;2753;49.196;8.286;2023-01-10T00:24:46;6.40;99.90
5461;DHT22;2753;49.196;8.286;2023-01-10T00:27:11;6.50;99.90
5461;DHT22;2753;49.196;8.286;2023-01-10T00:29:37;6.40;99.90
5461;DHT22;2753;49.196;8.286;2023-01-10T00:32:03;6.40;99.90
5461;DHT22;2753;49.196;8.286;2023-01-10T00:34:29;6.40;99.90
5461;DHT22;2753;49.196;8.286;2023-01-10T00:36:55;6.50;99.90
5461;DHT22;2753;49.196;8.286;2023-01-10T00:39:21;6.50;99.90
5461;DHT22;2753;49.196;8.286;2023-01-10T00:41:50;6.50;99.90
5461;DHT22;2753;49.196;8.286;2023-01-10T00:44:34;6.50;99.90
5461;DHT22;2753;49.196;8.286;2023-01-10T00:47:00;6.50;99.90
5461;DHT22;2753;49.196;8.286;2023-01-10T00:49:25;6.50;99.90
5461;DHT22;2753;49.196;8.286;2023-01-10T00:51:51;6.50;99.90
5461;DHT22;2753;49.196;8.286;2023-01-10T00:54:17;6.50;99.90
5461;DHT22;2753;49.196;8.286;2023-01-10T00:56:43;6.50;99.90
5461;DHT22;2753;49.196;8.286;2023-01-10T00:59:08;6.50;99.90
5461;DHT22;2753;49.196;8.286;2023-01-10T01:01:34;6.50;99.90
5461;DHT22;2753;49.196;8.286;2023-01-10T01:04:03;6.50;99.90
5461;DHT22;2753;49.196;8.286;2023-01-10T01:06:29;6.50;99.90
5461;DHT22;2753;49.196;8.286;2023-01-10T01:08:55;6.50;99.90
5461;DHT22;2753;49.196;8.286;2023-01-10T01:11:20;6.50;99.90
5461;DHT22;2753;49.196;8.286;2023-01-10T01:13:46;6.50;99.90
5461;DHT22;2753;49.196;8.286;2023-01-10T01:16:11;6.50;99.90
5461;DHT22;2753;49.196;8.286;2023-01-10T01:18:37;6.50;99.90
5461;DHT22;2753;49.196;8.286;2023-01-10T01:21:03;6.50;99.90
5461;DHT22;2753;49.196;8.286;2023-01-10T01:23:32;6.50;99.90
5461;DHT22;2753;49.196;8.286;2023-01-10T01:25:59;6.50;99.90
5461;DHT22;2753;49.196;8.286;2023-01-10T01:28:25;6.50;99.90
5461;DHT22;2753;49.196;8.286;2023-01-10T01:30:50;6.50;99.90
5461;DHT22;2753;49.196;8.286;2023-01-10T01:33:17;6.50;99.90
5461;DHT22;2753;49.196;8.286;2023-01-10T01:35:43;6.50;99.90
5461;DHT22;2753;49.196;8.286;2023-01-10T01:38:10;6.50;99.90
5461;DHT22;2753;49.196;8.286;2023-01-10T01:40:36;6.50;99.90
5461;DHT22;2753;49.196;8.286;2023-01-10T01:43:04;6.50;99.90
5461;DHT22;2753;49.196;8.286;2023-01-10T01:45:35;6.50;99.90
5461;DHT22;2753;49.196;8.286;2023-01-10T01:53:16;6.50;99.90
5461;DHT22;2753;49.196;8.286;2023-01-10T01:55:44;6.40;99.90
5461;DHT22;2753;49.196;8.286;2023-01-10T01:58:16;6.40;99.90
5461;DHT22;2753;49.196;8.286;2023-01-10T02:00:42;6.40;99.90
5461;DHT22;2753;49.196;8.286;2023-01-10T02:03:08;6.40;99.90
5461;DHT22;2753;49.196;8.286;2023-01-10T02:05:37;6.40;99.90
5461;DHT22;2753;49.196;8.286;2023-01-10T02:08:04;6.40;99.90
5461;DHT22;2753;49.196;8.286;2023-01-10T02:10:54;6.40;99.90
5461;DHT22;2753;49.196;8.286;2023-01-10T02:13:24;6.40;99.90
5461;DHT22;2753;49.196;8.286;2023-01-10T02:15:50;6.40;99.90
5461;DHT22;2753;49.196;8.286;2023-01-10T02:18:16;6.40;99.90
5461;DHT22;2753;49.196;8.286;2023-01-10T02:29:32;6.30;99.90
5461;DHT22;2753;49.196;8.286;2023-01-10T02:32:10;6.30;99.90
5461;DHT22;2753;49.196;8.286;2023-01-10T02:40:07;6.30;99.90
5461;DHT22;2753;49.196;8.286;2023-01-10T02:45:31;6.30;99.90
5461;DHT22;2753;49.196;8.286;2023-01-10T02:47:58;6.30;99.90
5461;DHT22;2753;49.196;8.286;2023-01-10T02:52:52;6.30;99.90
5461;DHT22;2753;49.196;8.286;2023-01-10T02:55:20;6.30;99.90
5461;DHT22;2753;49.196;8.286;2023-01-10T03:00:32;6.20;99.90
5461;DHT22;2753;49.196;8.286;2023-01-10T03:03:22;6.20;99.90
5461;DHT22;2753;49.196;8.286;2023-01-10T03:09:08;6.20;99.90
5461;DHT22;2753;49.196;8.286;2023-01-10T03:11:37;6.10;99.90
5461;DHT22;2753;49.196;8.286;2023-01-10T03:14:34;6.20;99.90
5461;DHT22;2753;49.196;8.286;2023-01-10T03:17:05;6.10;99.90
5461;DHT22;2753;49.196;8.286;2023-01-10T03:19:35;6.10;99.90
5461;DHT22;2753;49.196;8.286;2023-01-10T03:22:03;6.10;99.90
5461;DHT22;2753;49.196;8.286;2023-01-10T03:24:34;6.00;99.90
5461;DHT22;2753;49.196;8.286;2023-01-10T03:29:53;6.00;99.90
5461;DHT22;2753;49.196;8.286;2023-01-10T03:32:22;5.90;99.90
5461;DHT22;2753;49.196;8.286;2023-01-10T03:34:50;5.90;99.90
5461;DHT22;2753;49.196;8.286;2023-01-10T03:37:36;5.90;99.90
5461;DHT22;2753;49.196;8.286;2023-01-10T03:43:01;5.90;99.90
5461;DHT22;2753;49.196;8.286;2023-01-10T03:45:56;5.90;99.90
5461;DHT22;2753;49.196;8.286;2023-01-10T03:48:26;5.90;99.90
5461;DHT22;2753;49.196;8.286;2023-01-10T03:50:55;5.90;99.90
5461;DHT22;2753;49.196;8.286;2023-01-10T03:53:22;5.80;99.90
5461;DHT22;2753;49.196;8.286;2023-01-10T03:55:48;5.90;99.90
5461;DHT22;2753;49.196;8.286;2023-01-10T03:58:14;5.90;99.90
5461;DHT22;2753;49.196;8.286;2023-01-10T04:00:41;6.00;99.90
5461;DHT22;2753;49.196;8.286;2023-01-10T04:03:07;6.00;99.90
5461;DHT22;2753;49.196;8.286;2023-01-10T04:05:34;6.00;99.90
5461;DHT22;2753;49.196;8.286;2023-01-10T04:08:03;6.00;99.90
5461;DHT22;2753;49.196;8.286;2023-01-10T04:10:28;6.00;99.90
5461;DHT22;2753;49.196;8.286;2023-01-10T04:12:57;6.00;99.90
5461;DHT22;2753;49.196;8.286;2023-01-10T04:15:23;6.00;99.90
5461;DHT22;2753;49.196;8.286;2023-01-10T04:17:49;6.10;99.90
5461;DHT22;2753;49.196;8.286;2023-01-10T04:20:15;6.00;99.90
5461;DHT22;2753;49.196;8.286;2023-01-10T04:22:40;6.00;99.90
5461;DHT22;2753;49.196;8.286;2023-01-10T04:25:06;6.00;99.90
5461;DHT22;2753;49.196;8.286;2023-01-10T04:27:32;6.00;99.90
5461;DHT22;2753;49.196;8.286;2023-01-10T04:29:58;6.00;99.90
5461;DHT22;2753;49.196;8.286;2023-01-10T04:32:23;6.00;99.90
5461;DHT22;2753;49.196;8.286;2023-01-10T04:34:49;6.00;99.90
5461;DHT22;2753;49.196;8.286;2023-01-10T04:37:15;6.00;99.90
5461;DHT22;2753;49.196;8.286;2023-01-10T04:39:40;6.00;99.90
5461;DHT22;2753;49.196;8.286;2023-01-10T04:42:06;6.00;99.90
5461;DHT22;2753;49.196;8.286;2023-01-10T04:44:32;6.00;99.90
5461;DHT22;2753;49.196;8.286;2023-01-10T04:46:57;6.00;99.90
5461;DHT22;2753;49.196;8.286;2023-01-10T04:49:23;6.00;99.90
5461;DHT22;2753;49.196;8.286;2023-01-10T04:51:48;6.00;99.90
5461;DHT22;2753;49.196;8.286;2023-01-10T04:54:14;6.00;99.90
5461;DHT22;2753;49.196;8.286;2023-01-10T04:56:43;6.00;99.90
5461;DHT22;2753;49.196;8.286;2023-01-10T04:59:09;6.00;99.90
5461;DHT22;2753;49.196;8.286;2023-01-10T05:01:34;6.00;99.90
5461;DHT22;2753;49.196;8.286;2023-01-10T05:04:03;6.00;99.90
5461;DHT22;2753;49.196;8.286;2023-01-10T05:06:29;6.00;99.90
5461;DHT22;2753;49.196;8.286;2023-01-10T05:08:56;6.00;99.90
5461;DHT22;2753;49.196;8.286;2023-01-10T05:11:21;6.00;99.90
5461;DHT22;2753;49.196;8.286;2023-01-10T05:13:47;6.00;99.90
5461;DHT22;2753;49.196;8.286;2023-01-10T05:16:13;6.00;99.90
5461;DHT22;2753;49.196;8.286;2023-01-10T05:18:38;6.00;99.90
5461;DHT22;2753;49.196;8.286;2023-01-10T05:21:06;6.00;99.90
5461;DHT22;2753;49.196;8.286;2023-01-10T05:23:32;6.00;99.90
5461;DHT22;2753;49.196;8.286;2023-01-10T05:26:05;6.00;99.90
5461;DHT22;2753;49.196;8.286;2023-01-10T05:28:31;6.00;99.90
5461;DHT22;2753;49.196;8.286;2023-01-10T05:30:56;6.00;99.90
5461;DHT22;2753;49.196;8.286;2023-01-10T05:33:22;6.00;99.90
5461;DHT22;2753;49.196;8.286;2023-01-10T05:35:48;6.00;99.90
5461;DHT22;2753;49.196;8.286;2023-01-10T05:38:13;6.00;99.90
5461;DHT22;2753;49.196;8.286;2023-01-10T05:40:39;6.00;99.90
5461;DHT22;2753;49.196;8.286;2023-01-10T05:43:05;6.00;99.90
5461;DHT22;2753;49.196;8.286;2023-01-10T05:45:30;6.00;99.90
5461;DHT22;2753;49.196;8.286;2023-01-10T05:47:56;6.00;99.90
5461;DHT22;2753;49.196;8.286;2023-01-10T05:50:22;6.00;99.90
5461;DHT22;2753;49.196;8.286;2023-01-10T05:52:47;5.90;99.90
5461;DHT22;2753;49.196;8.286;2023-01-10T05:55:13;5.90;99.90
5461;DHT22;2753;49.196;8.286;2023-01-10T05:57:39;5.90;99.90
5461;DHT22;2753;49.196;8.286;2023-01-10T06:00:05;5.90;99.90
5461;DHT22;2753;49.196;8.286;2023-01-10T06:02:31;5.90;99.90
5461;DHT22;2753;49.196;8.286;2023-01-10T06:04:57;5.80;99.90
5461;DHT22;2753;49.196;8.286;2023-01-10T06:07:23;5.90;99.90
5461;DHT22;2753;49.196;8.286;2023-01-10T06:09:48;5.90;99.90
5461;DHT22;2753;49.196;8.286;2023-01-10T06:12:16;5.80;99.90
5461;DHT22;2753;49.196;8.286;2023-01-10T06:14:43;5.80;99.90
5461;DHT22;2753;49.196;8.286;2023-01-10T06:17:09;5.90;99.90
5461;DHT22;2753;49.196;8.286;2023-01-10T06:19:35;5.80;99.90
5461;DHT22;2753;49.196;8.286;2023-01-10T06:22:02;5.80;99.90
5461;DHT22;2753;49.196;8.286;2023-01-10T06:24:27;5.80;99.90
5461;DHT22;2753;49.196;8.286;2023-01-10T06:26:53;5.80;99.90
5461;DHT22;2753;49.196;8.286;2023-01-10T06:29:19;5.80;99.90
5461;DHT22;2753;49.196;8.286;2023-01-10T06:31:44;5.80;99.90
5461;DHT22;2753;49.196;8.286;2023-01-10T06:34:10;5.80;99.90
5461;DHT22;2753;49.196;8.286;2023-01-10T06:36:36;5.80;99.90
5461;DHT22;2753;49.196;8.286;2023-01-10T06:39:02;5.80;99.90
5461;DHT22;2753;49.196;8.286;2023-01-10T06:41:28;5.80;99.90
5461;DHT22;2753;49.196;8.286;2023-01-10T06:43:53;5.80;99.90
5461;DHT22;2753;49.196;8.286;2023-01-10T06:46:19;5.80;99.90
5461;DHT22;2753;49.196;8.286;2023-01-10T06:48:46;5.80;99.90
5461;DHT22;2753;49.196;8.286;2023-01-10T06:51:13;5.80;99.90
5461;DHT22;2753;49.196;8.286;2023-01-10T06:53:40;5.80;99.90
5461;DHT22;2753;49.196;8.286;2023-01-10T06:56:06;5.80;99.90
5461;DHT22;2753;49.196;8.286;2023-01-10T06:58:33;5.80;99.90
5461;DHT22;2753;49.196;8.286;2023-01-10T07:00:59;5.80;99.90
5461;DHT22;2753;49.196;8.286;2023-01-10T07:03:24;5.80;99.90
5461;DHT22;2753;49.196;8.286;2023-01-10T07:05:50;5.80;99.90
5461;DHT22;2753;49.196;8.286;2023-01-10T07:08:16;5.80;99.90
5461;DHT22;2753;49.196;8.286;2023-01-10T07:10:43;5.80;99.90
5461;DHT22;2753;49.196;8.286;2023-01-10T07:13:09;5.70;99.90
5461;DHT22;2753;49.196;8.286;2023-01-10T07:15:35;5.70;99.90
5461;DHT22;2753;49.196;8.286;2023-01-10T07:18:00;5.70;99.90
5461;DHT22;2753;49.196;8.286;2023-01-10T07:20:27;5.70;99.90
5461;DHT22;2753;49.196;8.286;2023-01-10T07:22:59;5.70;99.90
5461;DHT22;2753;49.196;8.286;2023-01-10T07:25:27;5.60;99.90
5461;DHT22;2753;49.196;8.286;2023-01-10T07:27:53;5.60;99.90
5461;DHT22;2753;49.196;8.286;2023-01-10T07:30:20;5.60;99.90
5461;DHT22;2753;49.196;8.286;2023-01-10T07:32:55;5.60;99.90
5461;DHT22;2753;49.196;8.286;2023-01-10T07:35:21;5.60;99.90
5461;DHT22;2753;49.196;8.286;2023-01-10T07:37:47;5.60;99.90
5461;DHT22;2753;49.196;8.286;2023-01-10T07:40:13;5.60;99.90
5461;DHT22;2753;49.196;8.286;2023-01-10T07:42:39;5.60;99.90
5461;DHT22;2753;49.196;8.286;2023-01-10T07:45:05;5.60;99.90
5461;DHT22;2753;49.196;8.286;2023-01-10T07:47:33;5.60;99.90
5461;DHT22;2753;49.196;8.286;2023-01-10T07:49:58;5.70;99.90
5461;DHT22;2753;49.196;8.286;2023-01-10T07:52:24;5.60;99.90
5461;DHT22;2753;49.196;8.286;2023-01-10T07:54:50;5.60;99.90
5461;DHT22;2753;49.196;8.286;2023-01-10T07:57:16;5.70;99.90
5461;DHT22;2753;49.196;8.286;2023-01-10T07:59:42;5.70;99.90
5461;DHT22;2753;49.196;8.286;2023-01-10T08:02:09;5.60;99.90
5461;DHT22;2753;49.196;8.286;2023-01-10T08:04:35;5.70;99.90
5461;DHT22;2753;49.196;8.286;2023-01-10T08:07:03;5.70;99.90
5461;DHT22;2753;49.196;8.286;2023-01-10T08:09:28;5.70;99.90
5461;DHT22;2753;49.196;8.286;2023-01-10T08:11:54;5.70;99.90
5461;DHT22;2753;49.196;8.286;2023-01-10T08:14:20;5.70;99.90
5461;DHT22;2753;49.196;8.286;2023-01-10T08:16:45;5.60;99.90
5461;DHT22;2753;49.196;8.286;2023-01-10T08:19:11;5.70;99.90
5461;DHT22;2753;49.196;8.286;2023-01-10T08:21:41;5.70;99.90
5461;DHT22;2753;49.196;8.286;2023-01-10T08:24:07;5.70;99.90
5461;DHT22;2753;49.196;8.286;2023-01-10T08:26:32;5.70;99.90
5461;DHT22;2753;49.196;8.286;2023-01-10T08:28:59;5.70;99.90
5461;DHT22;2753;49.196;8.286;2023-01-10T08:31:24;5.70;99.90
5461;DHT22;2753;49.196;8.286;2023-01-10T08:33:50;5.70;99.90
5461;DHT22;2753;49.196;8.286;2023-01-10T08:36:17;5.70;99.90
5461;DHT22;2753;49.196;8.286;2023-01-10T08:38:44;5.70;99.90
5461;DHT22;2753;49.196;8.286;2023-01-10T08:41:10;5.70;99.90
5461;DHT22;2753;49.196;8.286;2023-01-10T08:43:36;5.70;99.90
5461;DHT22;2753;49.196;8.286;2023-01-10T08:46:01;5.70;99.90
5461;DHT22;2753;49.196;8.286;2023-01-10T08:48:27;5.80;99.90
5461;DHT22;2753;49.196;8.286;2023-01-10T08:50:53;5.80;99.90
5461;DHT22;2753;49.196;8.286;2023-01-10T08:53:18;5.80;99.90
5461;DHT22;2753;49.196;8.286;2023-01-10T08:55:44;5.80;99.90
5461;DHT22;2753;49.196;8.286;2023-01-10T08:58:09;5.80;99.90
5461;DHT22;2753;49.196;8.286;2023-01-10T09:00:36;5.80;99.90
5461;DHT22;2753;49.196;8.286;2023-01-10T09:03:06;5.90;99.90
5461;DHT22;2753;49.196;8.286;2023-01-10T09:05:31;5.90;99.90
5461;DHT22;2753;49.196;8.286;2023-01-10T09:08:00;6.00;99.90
5461;DHT22;2753;49.196;8.286;2023-01-10T09:10:27;6.10;99.90
5461;DHT22;2753;49.196;8.286;2023-01-10T09:12:52;6.20;99.90
5461;DHT22;2753;49.196;8.286;2023-01-10T09:15:27;6.20;99.90
5461;DHT22;2753;49.196;8.286;2023-01-10T09:17:58;6.30;99.90
5461;DHT22;2753;49.196;8.286;2023-01-10T09:20:25;6.20;99.90
5461;DHT22;2753;49.196;8.286;2023-01-10T09:22:51;6.30;99.90
5461;DHT22;2753;49.196;8.286;2023-01-10T09:25:17;6.30;99.90
5461;DHT22;2753;49.196;8.286;2023-01-10T09:27:42;6.30;99.90
5461;DHT22;2753;49.196;8.286;2023-01-10T09:30:08;6.30;99.90
5461;DHT22;2753;49.196;8.286;2023-01-10T09:32:34;6.40;99.90
5461;DHT22;2753;49.196;8.286;2023-01-10T09:35:00;6.40;99.90
5461;DHT22;2753;49.196;8.286;2023-01-10T09:37:25;6.40;99.90
5461;DHT22;2753;49.196;8.286;2023-01-10T09:39:51;6.40;99.90
5461;DHT22;2753;49.196;8.286;2023-01-10T09:45:24;6.40;99.90
5461;DHT22;2753;49.196;8.286;2023-01-10T09:48:02;6.40;99.90
5461;DHT22;2753;49.196;8.286;2023-01-10T09:53:04;6.40;99.90
5461;DHT22;2753;49.196;8.286;2023-01-10T09:55:35;6.40;99.90
5461;DHT22;2753;49.196;8.286;2023-01-10T09:58:24;6.50;99.90
5461;DHT22;2753;49.196;8.286;2023-01-10T10:01:03;6.50;99.90
5461;DHT22;2753;49.196;8.286;2023-01-10T10:06:21;6.50;99.90
5461;DHT22;2753;49.196;8.286;2023-01-10T10:08:47;6.50;99.90
5461;DHT22;2753;49.196;8.286;2023-01-10T10:11:39;6.50;99.90
5461;DHT22;2753;49.196;8.286;2023-01-10T10:17:24;6.50;99.90
5461;DHT22;2753;49.196;8.286;2023-01-10T10:19:58;6.50;99.90
5461;DHT22;2753;49.196;8.286;2023-01-10T10:22:57;6.50;99.90
5461;DHT22;2753;49.196;8.286;2023-01-10T10:28:50;6.50;99.90
5461;DHT22;2753;49.196;8.286;2023-01-10T10:33:59;6.50;99.90
5461;DHT22;2753;49.196;8.286;2023-01-10T10:36:58;6.60;99.90
5461;DHT22;2753;49.196;8.286;2023-01-10T10:40:46;6.60;99.90
5461;DHT22;2753;49.196;8.286;2023-01-10T10:42:43;6.60;99.90
5461;DHT22;2753;49.196;8.286;2023-01-10T10:47:48;6.60;99.90
5461;DHT22;2753;49.196;8.286;2023-01-10T10:50:20;6.60;99.90
5461;DHT22;2753;49.196;8.286;2023-01-10T10:52:48;6.60;99.90
5461;DHT22;2753;49.196;8.286;2023-01-10T10:55:32;6.50;99.90
5461;DHT22;2753;49.196;8.286;2023-01-10T10:58:00;6.60;99.90
5461;DHT22;2753;49.196;8.286;2023-01-10T11:00:28;6.60;99.90
5461;DHT22;2753;49.196;8.286;2023-01-10T11:03:02;6.50;99.90
5461;DHT22;2753;49.196;8.286;2023-01-10T11:05:39;6.60;99.90
5461;DHT22;2753;49.196;8.286;2023-01-10T11:08:08;6.60;99.90
5461;DHT22;2753;49.196;8.286;2023-01-10T11:10:36;6.60;99.90
5461;DHT22;2753;49.196;8.286;2023-01-10T11:13:29;6.60;99.90
5461;DHT22;2753;49.196;8.286;2023-01-10T11:15:51;6.60;99.90
5461;DHT22;2753;49.196;8.286;2023-01-10T11:18:25;6.60;99.90
5461;DHT22;2753;49.196;8.286;2023-01-10T11:21:02;6.60;99.90
5461;DHT22;2753;49.196;8.286;2023-01-10T11:26:04;6.70;99.90
5461;DHT22;2753;49.196;8.286;2023-01-10T11:28:32;6.70;99.90
5461;DHT22;2753;49.196;8.286;2023-01-10T11:30:58;6.70;99.90
5461;DHT22;2753;49.196;8.286;2023-01-10T11:33:28;6.80;99.90
5461;DHT22;2753;49.196;8.286;2023-01-10T11:36:09;6.80;99.90
5461;DHT22;2753;49.196;8.286;2023-01-10T11:38:37;6.80;99.90
5461;DHT22;2753;49.196;8.286;2023-01-10T11:41:05;6.80;99.90
5461;DHT22;2753;49.196;8.286;2023-01-10T11:43:36;6.80;99.90
5461;DHT22;2753;49.196;8.286;2023-01-10T11:46:03;6.90;99.90
5461;DHT22;2753;49.196;8.286;2023-01-10T11:51:24;6.90;99.90
5461;DHT22;2753;49.196;8.286;2023-01-10T11:53:58;6.90;99.90
5461;DHT22;2753;49.196;8.286;2023-01-10T11:56:35;6.90;99.90
5461;DHT22;2753;49.196;8.286;2023-01-10T11:59:15;6.90;99.90
5461;DHT22;2753;49.196;8.286;2023-01-10T12:04:19;6.90;99.90
5461;DHT22;2753;49.196;8.286;2023-01-10T12:06:55;6.90;99.90
5461;DHT22;2753;49.196;8.286;2023-01-10T12:09:35;6.90;99.90
5461;DHT22;2753;49.196;8.286;2023-01-10T12:12:04;6.90;99.90
5461;DHT22;2753;49.196;8.286;2023-01-10T12:14:31;6.90;99.90
5461;DHT22;2753;49.196;8.286;2023-01-10T12:17:01;6.90;99.90
5461;DHT22;2753;49.196;8.286;2023-01-10T12:19:27;6.90;99.90
5461;DHT22;2753;49.196;8.286;2023-01-10T12:21:59;7.00;99.90
5461;DHT22;2753;49.196;8.286;2023-01-10T12:24:34;7.00;99.90
5461;DHT22;2753;49.196;8.286;2023-01-10T12:27:02;7.00;99.90
5461;DHT22;2753;49.196;8.286;2023-01-10T12:29:38;7.00;99.90
5461;DHT22;2753;49.196;8.286;2023-01-10T12:32:13;7.00;99.90
5461;DHT22;2753;49.196;8.286;2023-01-10T12:34:49;7.10;99.90
5461;DHT22;2753;49.196;8.286;2023-01-10T12:37:50;7.30;99.90
5461;DHT22;2753;49.196;8.286;2023-01-10T12:43:15;7.80;99.90
5461;DHT22;2753;49.196;8.286;2023-01-10T12:46:32;7.90;99.90
5461;DHT22;2753;49.196;8.286;2023-01-10T12:49:28;7.90;99.90
5461;DHT22;2753;49.196;8.286;2023-01-10T12:51:54;7.80;99.90
5461;DHT22;2753;49.196;8.286;2023-01-10T12:54:26;7.70;99.90
5461;DHT22;2753;49.196;8.286;2023-01-10T12:56:54;7.70;99.90
5461;DHT22;2753;49.196;8.286;2023-01-10T12:59:28;7.60;99.90
5461;DHT22;2753;49.196;8.286;2023-01-10T13:01:57;7.60;99.90
5461;DHT22;2753;49.196;8.286;2023-01-10T13:04:27;7.80;99.90
5461;DHT22;2753;49.196;8.286;2023-01-10T13:06:54;8.00;99.90
5461;DHT22;2753;49.196;8.286;2023-01-10T13:09:23;8.20;99.90
5461;DHT22;2753;49.196;8.286;2023-01-10T13:14:47;8.20;99.90
5461;DHT22;2753;49.196;8.286;2023-01-10T13:20:17;8.00;99.90
5461;DHT22;2753;49.196;8.286;2023-01-10T13:22:51;8.00;99.90
5461;DHT22;2753;49.196;8.286;2023-01-10T13:25:25;8.10;99.90
5461;DHT22;2753;49.196;8.286;2023-01-10T13:28:13;8.10;99.90
5461;DHT22;2753;49.196;8.286;2023-01-10T13:30:41;8.20;99.90
5461;DHT22;2753;49.196;8.286;2023-01-10T13:33:27;8.20;99.90
5461;DHT22;2753;49.196;8.286;2023-01-10T13:35:56;8.20;99.90
5461;DHT22;2753;49.196;8.286;2023-01-10T13:38:26;8.20;99.90
5461;DHT22;2753;49.196;8.286;2023-01-10T13:41:01;8.30;99.90
5461;DHT22;2753;49.196;8.286;2023-01-10T13:43:38;8.20;99.90
5461;DHT22;2753;49.196;8.286;2023-01-10T13:51:31;8.10;99.90
5461;DHT22;2753;49.196;8.286;2023-01-10T13:54:02;8.10;99.90
5461;DHT22;2753;49.196;8.286;2023-01-10T13:56:41;8.10;99.90
5461;DHT22;2753;49.196;8.286;2023-01-10T14:02:24;8.10;99.90
5461;DHT22;2753;49.196;8.286;2023-01-10T14:05:26;8.00;99.90
5461;DHT22;2753;49.196;8.286;2023-01-10T14:07:52;8.00;99.90
5461;DHT22;2753;49.196;8.286;2023-01-10T14:10:26;7.90;99.90
5461;DHT22;2753;49.196;8.286;2023-01-10T14:12:59;7.90;99.90
5461;DHT22;2753;49.196;8.286;2023-01-10T14:15:38;7.80;99.90
5461;DHT22;2753;49.196;8.286;2023-01-10T14:20:58;7.80;99.90
5461;DHT22;2753;49.196;8.286;2023-01-10T14:23:35;7.80;99.90
5461;DHT22;2753;49.196;8.286;2023-01-10T14:26:02;7.80;99.90
5461;DHT22;2753;49.196;8.286;2023-01-10T14:28:30;7.70;99.90
5461;DHT22;2753;49.196;8.286;2023-01-10T14:31:17;7.70;99.90
5461;DHT22;2753;49.196;8.286;2023-01-10T14:33:44;7.70;99.90
5461;DHT22;2753;49.196;8.286;2023-01-10T14:38:50;7.70;99.90
5461;DHT22;2753;49.196;8.286;2023-01-10T14:44:00;7.60;99.90
5461;DHT22;2753;49.196;8.286;2023-01-10T14:46:48;7.60;99.90
5461;DHT22;2753;49.196;8.286;2023-01-10T14:49:24;7.60;99.90
5461;DHT22;2753;49.196;8.286;2023-01-10T14:51:51;7.60;99.90
5461;DHT22;2753;49.196;8.286;2023-01-10T14:54:20;7.60;99.90
5461;DHT22;2753;49.196;8.286;2023-01-10T14:56:50;7.60;99.90
5461;DHT22;2753;49.196;8.286;2023-01-10T14:59:30;7.60;99.90
5461;DHT22;2753;49.196;8.286;2023-01-10T15:01:57;7.60;99.90
5461;DHT22;2753;49.196;8.286;2023-01-10T15:04:26;7.50;99.90
5461;DHT22;2753;49.196;8.286;2023-01-10T15:07:16;7.50;99.90
5461;DHT22;2753;49.196;8.286;2023-01-10T15:09:47;7.50;99.90
5461;DHT22;2753;49.196;8.286;2023-01-10T15:12:14;7.50;99.90
5461;DHT22;2753;49.196;8.286;2023-01-10T15:14:41;7.50;99.90
5461;DHT22;2753;49.196;8.286;2023-01-10T15:17:12;7.50;99.90
5461;DHT22;2753;49.196;8.286;2023-01-10T15:19:42;7.50;99.90
5461;DHT22;2753;49.196;8.286;2023-01-10T15:27:26;7.40;99.90
5461;DHT22;2753;49.196;8.286;2023-01-10T15:29:52;7.40;99.90
5461;DHT22;2753;49.196;8.286;2023-01-10T15:34:54;7.30;99.90
5461;DHT22;2753;49.196;8.286;2023-01-10T15:37:23;7.30;99.90
5461;DHT22;2753;49.196;8.286;2023-01-10T15:39:58;7.30;99.90
5461;DHT22;2753;49.196;8.286;2023-01-10T15:42:25;7.20;99.90
5461;DHT22;2753;49.196;8.286;2023-01-10T15:44:52;7.20;99.90
5461;DHT22;2753;49.196;8.286;2023-01-10T15:47:34;7.20;99.90
5461;DHT22;2753;49.196;8.286;2023-01-10T15:50:01;7.20;99.90
5461;DHT22;2753;49.196;8.286;2023-01-10T15:52:26;7.10;99.90
5461;DHT22;2753;49.196;8.286;2023-01-10T15:54:52;7.10;99.90
5461;DHT22;2753;49.196;8.286;2023-01-10T15:57:33;7.10;99.90
5461;DHT22;2753;49.196;8.286;2023-01-10T16:00:00;7.10;99.90
5461;DHT22;2753;49.196;8.286;2023-01-10T16:04:55;7.10;99.90
5461;DHT22;2753;49.196;8.286;2023-01-10T16:07:28;7.10;99.90
5461;DHT22;2753;49.196;8.286;2023-01-10T16:10:17;7.00;99.90
5461;DHT22;2753;49.196;8.286;2023-01-10T16:12:43;7.00;99.90
5461;DHT22;2753;49.196;8.286;2023-01-10T16:15:29;7.00;99.90
5461;DHT22;2753;49.196;8.286;2023-01-10T16:17:56;7.00;99.90
5461;DHT22;2753;49.196;8.286;2023-01-10T16:20:37;6.90;99.90
5461;DHT22;2753;49.196;8.286;2023-01-10T16:23:04;6.90;99.90
5461;DHT22;2753;49.196;8.286;2023-01-10T16:25:37;6.90;99.90
5461;DHT22;2753;49.196;8.286;2023-01-10T16:28:04;6.90;99.90
5461;DHT22;2753;49.196;8.286;2023-01-10T16:30:31;6.90;99.90
5461;DHT22;2753;49.196;8.286;2023-01-10T16:33:01;6.90;99.90
5461;DHT22;2753;49.196;8.286;2023-01-10T16:35:33;6.90;99.90
5461;DHT22;2753;49.196;8.286;2023-01-10T16:37:58;6.90;99.90
5461;DHT22;2753;49.196;8.286;2023-01-10T16:40:50;6.90;99.90
5461;DHT22;2753;49.196;8.286;2023-01-10T16:43:17;6.90;99.90
5461;DHT22;2753;49.196;8.286;2023-01-10T16:45:54;6.90;99.90
5461;DHT22;2753;49.196;8.286;2023-01-10T16:48:28;6.90;99.90
5461;DHT22;2753;49.196;8.286;2023-01-10T16:50:54;6.90;99.90
5461;DHT22;2753;49.196;8.286;2023-01-10T16:53:20;6.90;99.90
5461;DHT22;2753;49.196;8.286;2023-01-10T16:58:12;6.90;99.90
5461;DHT22;2753;49.196;8.286;2023-01-10T17:00:40;6.90;99.90
5461;DHT22;2753;49.196;8.286;2023-01-10T17:03:26;6.90;99.90
5461;DHT22;2753;49.196;8.286;2023-01-10T17:05:53;6.90;99.90
5461;DHT22;2753;49.196;8.286;2023-01-10T17:08:21;6.80;99.90
5461;DHT22;2753;49.196;8.286;2023-01-10T17:10:51;6.90;99.90
5461;DHT22;2753;49.196;8.286;2023-01-10T17:13:23;6.80;99.90
5461;DHT22;2753;49.196;8.286;2023-01-10T17:15:50;6.80;99.90
5461;DHT22;2753;49.196;8.286;2023-01-10T17:18:16;6.80;99.90
5461;DHT22;2753;49.196;8.286;2023-01-10T17:20:41;6.80;99.90
5461;DHT22;2753;49.196;8.286;2023-01-10T17:23:08;6.80;99.90
5461;DHT22;2753;49.196;8.286;2023-01-10T17:25:34;6.80;99.90
5461;DHT22;2753;49.196;8.286;2023-01-10T17:28:00;6.80;99.90
5461;DHT22;2753;49.196;8.286;2023-01-10T17:30:26;6.80;99.90
5461;DHT22;2753;49.196;8.286;2023-01-10T17:32:51;6.80;99.90
5461;DHT22;2753;49.196;8.286;2023-01-10T17:35:17;6.80;99.90
5461;DHT22;2753;49.196;8.286;2023-01-10T17:37:43;6.80;99.90
5461;DHT22;2753;49.196;8.286;2023-01-10T17:40:09;6.80;99.90
5461;DHT22;2753;49.196;8.286;2023-01-10T17:42:35;6.80;99.90
5461;DHT22;2753;49.196;8.286;2023-01-10T17:45:00;6.80;99.90
5461;DHT22;2753;49.196;8.286;2023-01-10T17:47:26;6.80;99.90
5461;DHT22;2753;49.196;8.286;2023-01-10T17:49:52;6.80;99.90
5461;DHT22;2753;49.196;8.286;2023-01-10T17:52:17;6.80;99.90
5461;DHT22;2753;49.196;8.286;2023-01-10T17:54:43;6.80;99.90
5461;DHT22;2753;49.196;8.286;2023-01-10T17:57:08;6.80;99.90
5461;DHT22;2753;49.196;8.286;2023-01-10T17:59:35;6.80;99.90
5461;DHT22;2753;49.196;8.286;2023-01-10T18:02:01;6.80;99.90
5461;DHT22;2753;49.196;8.286;2023-01-10T18:04:26;6.80;99.90
5461;DHT22;2753;49.196;8.286;2023-01-10T18:06:52;6.80;99.90
5461;DHT22;2753;49.196;8.286;2023-01-10T18:09:18;6.80;99.90
5461;DHT22;2753;49.196;8.286;2023-01-10T18:11:44;6.80;99.90
5461;DHT22;2753;49.196;8.286;2023-01-10T18:14:09;6.80;99.90